Weather at An Nasiriyah Air Base

Public forecast

Using degrees Celsius for public forecast. Weather courtesy of forecast.io.

Closest aviation weather report (METAR) to An Nasiriyah Air Base

Report is more than 6 hours old.

Closest report is Damascus International Airport, 35.2 nm (65.1 km) SSW. Retrieved 2022/09/17 19:00 UTC (8 days ago):

OSDI 171900Z 35008KT CAVOK 26/03 Q1010

Closest aviation forecast (TAF) to An Nasiriyah Air Base

Forecast is more than 12 hours old.

Closest forecast is Damascus International Airport, 35.2 nm (65.1 km) SSW. Retrieved 2022/09/17 18:54 UTC (8 days ago):

TAF OSDI 171700Z 1718/1824 29010KT CAVOK